Meadow, South Dakota
Current Conditions -  °F | °C
As of 4:53 PM on Wednesday 22 Oct 2014 (Local Time) from KHEI Reporting Station
Clear Clear  
Wind Chill: 60°   Ceiling: Unl
Heat Index: 60°   Visibility: 10mi
Dew Point: 30°   Wind: 16mph
Humidity: 32%   Direction: 260°W
Pressure: 29.93"   Gusts: NA
Location:  45.53°N, 102.22°W
Report Text: KHEI 222253Z AUTO 26014KT 10SM CLR 16/M01 A2993 RMK AO2 SLP132 T01561011
Loading
Personal Weather Stations






























Interactive Weather Map
Tropical Storm Tracking
New forecast layout! Learn more

10-Day Weather Forecast

Advertisements
Track Severe Weather on mobile